createdAt,value
2022-10-31T00:01:39.030Z,100621.28
2022-10-31T00:04:07.439Z,100625.09
2022-10-31T00:06:34.778Z,100627.44
2022-10-31T00:09:05.321Z,100626.53
2022-10-31T00:11:32.652Z,100626.00
2022-10-31T00:14:00.479Z,100629.47
2022-10-31T00:16:29.715Z,100626.84
2022-10-31T00:19:03.386Z,100625.53
2022-10-31T00:21:32.326Z,100629.25
2022-10-31T00:24:00.888Z,100621.47
2022-10-31T00:26:30.511Z,100624.75
2022-10-31T00:29:00.906Z,100632.25
2022-10-31T00:31:28.662Z,100630.91
2022-10-31T00:33:56.433Z,100629.56
2022-10-31T00:36:23.603Z,100629.13
2022-10-31T00:38:50.801Z,100632.84
2022-10-31T00:41:19.034Z,100625.53
2022-10-31T00:43:46.393Z,100629.03
2022-10-31T00:46:14.602Z,100628.78
2022-10-31T00:48:43.027Z,100630.25
2022-10-31T00:51:10.617Z,100629.06
2022-10-31T00:53:37.884Z,100627.34
2022-10-31T00:56:06.292Z,100629.69
2022-10-31T00:58:33.454Z,100623.53
2022-10-31T01:01:00.714Z,100629.94
2022-10-31T01:03:32.688Z,100623.63
2022-10-31T01:06:05.719Z,100625.72
2022-10-31T01:08:35.570Z,100616.53
2022-10-31T01:11:12.233Z,100622.47
2022-10-31T01:13:42.396Z,100629.34
2022-10-31T01:16:17.764Z,100625.63
2022-10-31T01:18:45.353Z,100622.16
2022-10-31T01:21:18.297Z,100625.28
2022-10-31T01:23:46.631Z,100630.44
2022-10-31T01:26:25.921Z,100630.50
2022-10-31T01:29:02.317Z,100632.25
2022-10-31T01:31:37.777Z,100625.00
2022-10-31T01:34:07.524Z,100615.44
2022-10-31T01:36:38.972Z,100620.50
2022-10-31T01:39:14.772Z,100628.81
2022-10-31T01:41:52.863Z,100619.41
2022-10-31T01:44:19.950Z,100622.47
2022-10-31T01:47:15.321Z,100617.81
2022-10-31T01:49:59.102Z,100618.53
2022-10-31T01:52:50.654Z,100614.09
2022-10-31T01:55:36.118Z,100614.72
2022-10-31T01:58:14.294Z,100618.72
2022-10-31T02:00:47.806Z,100612.91
2022-10-31T02:03:15.323Z,100609.81
2022-10-31T02:05:44.657Z,100606.94
2022-10-31T02:08:41.569Z,100616.56
2022-10-31T02:11:09.287Z,100611.44
2022-10-31T02:13:38.031Z,100611.06
2022-10-31T02:16:10.372Z,100610.28
2022-10-31T02:18:37.640Z,100600.41
2022-10-31T02:21:28.021Z,100598.75
2022-10-31T02:24:21.653Z,100601.34
2022-10-31T02:27:31.369Z,100598.28
2022-10-31T02:30:46.444Z,100593.22
2022-10-31T02:33:43.714Z,100598.63
2022-10-31T02:36:12.380Z,100597.63
2022-10-31T02:39:24.802Z,100594.41
2022-10-31T02:42:20.966Z,100600.25
2022-10-31T02:45:11.348Z,100592.84
2022-10-31T02:47:39.888Z,100595.75
2022-10-31T02:50:25.100Z,100591.66
2022-10-31T02:52:53.532Z,100596.44
2022-10-31T02:55:26.742Z,100597.91
2022-10-31T02:58:11.192Z,100593.84
2022-10-31T03:01:29.380Z,100590.03
2022-10-31T03:04:23.087Z,100594.28
2022-10-31T03:07:40.141Z,100589.31
2022-10-31T03:10:47.738Z,100585.44
2022-10-31T03:13:44.616Z,100590.88
2022-10-31T03:16:51.108Z,100591.84
2022-10-31T03:19:34.178Z,100591.06
2022-10-31T03:22:25.298Z,100589.41
2022-10-31T03:24:55.560Z,100585.44
2022-10-31T03:27:28.960Z,100581.84
2022-10-31T03:30:02.373Z,100586.44
2022-10-31T03:33:00.147Z,100581.66
2022-10-31T03:35:31.668Z,100587.69
2022-10-31T03:38:06.768Z,100590.31
2022-10-31T03:40:38.638Z,100591.19
2022-10-31T03:43:15.178Z,100596.72
2022-10-31T03:45:47.806Z,100592.28
2022-10-31T03:48:18.944Z,100595.00
2022-10-31T03:51:12.735Z,100602.31
2022-10-31T03:54:30.719Z,100599.69
2022-10-31T03:57:27.563Z,100603.31
2022-10-31T04:00:16.077Z,100605.09
2022-10-31T04:03:32.180Z,100602.69
2022-10-31T04:06:07.960Z,100599.00
2022-10-31T04:08:52.559Z,100592.66
2022-10-31T04:11:26.758Z,100600.88
2022-10-31T04:14:13.869Z,100599.78
2022-10-31T04:16:44.964Z,100604.38
2022-10-31T04:19:14.035Z,100605.84
2022-10-31T04:21:44.251Z,100612.75
2022-10-31T04:24:12.395Z,100605.84
2022-10-31T04:26:40.405Z,100595.47
2022-10-31T04:29:08.049Z,100592.19
2022-10-31T04:31:35.289Z,100597.88
2022-10-31T04:34:03.074Z,100602.03
2022-10-31T04:36:30.298Z,100596.97
2022-10-31T04:38:58.868Z,100590.13
2022-10-31T04:41:40.899Z,100594.34
2022-10-31T04:44:17.358Z,100595.41
2022-10-31T04:46:48.531Z,100591.53
2022-10-31T04:49:15.787Z,100594.16
2022-10-31T04:51:43.094Z,100600.53
2022-10-31T04:54:10.601Z,100597.34
2022-10-31T04:57:09.976Z,100591.38
2022-10-31T04:59:38.179Z,100592.66
2022-10-31T05:02:05.465Z,100599.59
2022-10-31T05:04:43.539Z,100600.22
2022-10-31T05:07:10.822Z,100593.91
2022-10-31T05:09:38.043Z,100595.41
2022-10-31T05:12:05.722Z,100599.47
2022-10-31T05:14:51.367Z,100592.03
2022-10-31T05:17:38.446Z,100602.31
2022-10-31T05:20:29.410Z,100596.50
2022-10-31T05:23:15.535Z,100606.75
2022-10-31T05:25:43.304Z,100608.47
2022-10-31T05:28:10.613Z,100598.34
2022-10-31T05:30:38.416Z,100602.66
2022-10-31T05:33:09.510Z,100602.84
2022-10-31T05:35:55.285Z,100604.16
2022-10-31T05:38:25.305Z,100596.72
2022-10-31T05:41:01.911Z,100604.72
2022-10-31T05:43:31.506Z,100606.97
2022-10-31T05:45:58.987Z,100603.25
2022-10-31T05:48:44.652Z,100605.13
2022-10-31T05:51:38.135Z,100603.75
2022-10-31T05:54:05.937Z,100599.31
2022-10-31T05:56:33.179Z,100599.13
2022-10-31T05:59:01.197Z,100603.56
2022-10-31T06:01:28.540Z,100600.59
2022-10-31T06:03:57.713Z,100598.47
2022-10-31T06:06:25.002Z,100598.28
2022-10-31T06:08:53.137Z,100595.94
2022-10-31T06:11:23.344Z,100604.38
2022-10-31T06:14:03.001Z,100605.66
2022-10-31T06:16:44.573Z,100610.41
2022-10-31T06:19:31.713Z,100612.59
2022-10-31T06:21:59.707Z,100609.97
2022-10-31T06:24:26.963Z,100613.59
2022-10-31T06:26:54.184Z,100615.38
2022-10-31T06:29:22.205Z,100607.94
2022-10-31T06:32:02.367Z,100611.72
2022-10-31T06:34:31.063Z,100628.00
2022-10-31T06:37:00.023Z,100624.56
2022-10-31T06:39:28.668Z,100620.59
2022-10-31T06:41:55.964Z,100627.31
2022-10-31T06:44:24.350Z,100627.69
2022-10-31T06:47:14.379Z,100629.66
2022-10-31T06:50:06.163Z,100635.25
2022-10-31T06:52:33.372Z,100622.44
2022-10-31T06:55:00.502Z,100624.81
2022-10-31T06:57:28.870Z,100638.56
2022-10-31T06:59:56.750Z,100636.22
2022-10-31T07:02:42.262Z,100643.94
2022-10-31T07:05:09.541Z,100641.78
2022-10-31T07:07:37.313Z,100647.38
2022-10-31T07:10:05.208Z,100642.47
2022-10-31T07:13:07.410Z,100657.47
2022-10-31T07:15:40.218Z,100659.34
2022-10-31T07:18:11.236Z,100654.84
2022-10-31T07:20:38.908Z,100658.41
2022-10-31T07:23:06.525Z,100650.47
2022-10-31T07:25:34.156Z,100654.84
2022-10-31T07:28:01.888Z,100658.56
2022-10-31T07:30:29.504Z,100657.13
2022-10-31T07:32:57.837Z,100661.50
2022-10-31T07:35:36.206Z,100655.00
2022-10-31T07:38:15.220Z,100664.56
2022-10-31T07:40:43.853Z,100666.38
2022-10-31T07:43:14.811Z,100663.69
2022-10-31T07:46:02.538Z,100668.78
2022-10-31T07:48:48.097Z,100661.44
2022-10-31T07:51:34.048Z,100670.19
2022-10-31T07:54:16.183Z,100658.41
2022-10-31T07:56:43.371Z,100665.16
2022-10-31T07:59:10.675Z,100659.34
2022-10-31T08:01:37.883Z,100660.88
2022-10-31T08:04:40.314Z,100661.72
2022-10-31T08:07:39.633Z,100667.94
2022-10-31T08:10:13.975Z,100663.75
2022-10-31T08:12:41.508Z,100655.31
2022-10-31T08:15:10.180Z,100658.34
2022-10-31T08:17:38.961Z,100658.72
2022-10-31T08:20:07.351Z,100653.84
2022-10-31T08:22:43.823Z,100656.97
2022-10-31T08:25:11.723Z,100652.72
2022-10-31T08:27:39.824Z,100656.56
2022-10-31T08:30:09.883Z,100654.44
2022-10-31T08:32:39.798Z,100660.94
2022-10-31T08:35:39.502Z,100664.75
2022-10-31T08:38:38.823Z,100664.19
2022-10-31T08:41:09.576Z,100662.84
2022-10-31T08:43:37.707Z,100661.38
2022-10-31T08:46:05.269Z,100666.22
2022-10-31T08:48:33.278Z,100659.50
2022-10-31T08:51:02.013Z,100661.34
2022-10-31T08:53:30.414Z,100654.41
2022-10-31T08:56:15.792Z,100662.63
2022-10-31T08:58:42.976Z,100665.47
2022-10-31T09:01:11.316Z,100667.41
2022-10-31T09:03:38.611Z,100664.94
2022-10-31T09:06:09.697Z,100667.06
2022-10-31T09:08:38.192Z,100663.03
2022-10-31T09:11:07.455Z,100663.25
2022-10-31T09:14:10.209Z,100660.09
2022-10-31T09:16:40.280Z,100650.34
2022-10-31T09:19:13.696Z,100658.31
2022-10-31T09:21:45.615Z,100652.28
2022-10-31T09:24:12.933Z,100663.06
2022-10-31T09:26:42.487Z,100667.63
2022-10-31T09:29:24.555Z,100671.47
2022-10-31T09:31:57.744Z,100672.06
2022-10-31T09:34:33.878Z,100676.09
2022-10-31T09:37:06.116Z,100671.00
2022-10-31T09:39:35.784Z,100673.22
2022-10-31T09:42:51.088Z,100670.44
2022-10-31T09:45:45.248Z,100673.38
2022-10-31T09:49:14.111Z,100666.19
2022-10-31T09:52:25.138Z,100669.97
2022-10-31T09:55:06.030Z,100670.50
2022-10-31T09:57:38.086Z,100659.53
2022-10-31T10:00:11.145Z,100662.38
2022-10-31T10:03:00.068Z,100658.03
2022-10-31T10:05:45.040Z,100664.41
2022-10-31T10:08:26.659Z,100658.84
2022-10-31T10:11:56.179Z,100664.09
2022-10-31T10:14:58.078Z,100663.38
2022-10-31T10:17:52.755Z,100665.94
2022-10-31T10:20:35.787Z,100659.50
2022-10-31T10:23:37.703Z,100649.41
2022-10-31T10:27:00.663Z,100642.13
2022-10-31T10:29:59.325Z,100635.34
2022-10-31T10:32:32.581Z,100639.53
2022-10-31T10:35:36.270Z,100637.34
2022-10-31T10:38:36.703Z,100636.16
2022-10-31T10:41:12.997Z,100629.00
2022-10-31T10:43:40.656Z,100632.50
2022-10-31T10:47:08.916Z,100626.84
2022-10-31T10:49:54.300Z,100627.72
2022-10-31T10:52:53.837Z,100626.22
2022-10-31T10:55:56.416Z,100632.81
2022-10-31T10:58:23.927Z,100628.88
2022-10-31T11:00:54.423Z,100634.94
2022-10-31T11:03:21.859Z,100630.63
2022-10-31T11:06:02.089Z,100622.53
2022-10-31T11:08:32.508Z,100620.13
2022-10-31T11:11:17.818Z,100623.81
2022-10-31T11:13:51.370Z,100611.19
2022-10-31T11:16:35.532Z,100608.81
2022-10-31T11:19:13.074Z,100602.59
2022-10-31T11:21:40.295Z,100598.38
2022-10-31T11:24:10.375Z,100594.16
2022-10-31T11:26:40.486Z,100591.19
2022-10-31T11:29:26.806Z,100587.28
2022-10-31T11:32:00.955Z,100585.16
2022-10-31T11:34:35.895Z,100587.25
2022-10-31T11:37:28.162Z,100585.59
2022-10-31T11:40:00.247Z,100583.13
2022-10-31T11:42:37.098Z,100576.34
2022-10-31T11:45:23.843Z,100580.75
2022-10-31T11:47:59.192Z,100577.53
2022-10-31T11:50:43.424Z,100578.41
2022-10-31T11:53:56.725Z,100582.81
2022-10-31T11:56:27.813Z,100580.63
2022-10-31T11:59:06.822Z,100583.38
2022-10-31T12:01:34.541Z,100578.78
2022-10-31T12:04:10.934Z,100576.13
2022-10-31T12:06:43.036Z,100574.28
2022-10-31T12:09:34.648Z,100573.31
2022-10-31T12:12:30.962Z,100573.38
2022-10-31T12:15:34.338Z,100571.38
2022-10-31T12:18:33.799Z,100562.50
2022-10-31T12:22:14.324Z,100554.88
2022-10-31T12:25:52.257Z,100551.88
2022-10-31T12:28:45.415Z,100547.91
2022-10-31T12:31:55.115Z,100544.78
2022-10-31T12:34:49.965Z,100534.22
2022-10-31T12:38:04.343Z,100536.31
2022-10-31T12:41:08.947Z,100536.38
2022-10-31T12:43:58.507Z,100535.75
2022-10-31T12:46:37.561Z,100526.19
2022-10-31T12:49:40.032Z,100518.25
2022-10-31T12:52:54.380Z,100508.59
2022-10-31T12:56:02.055Z,100502.53
2022-10-31T12:58:46.725Z,100491.88
2022-10-31T13:01:27.578Z,100490.09
2022-10-31T13:04:17.988Z,100482.25
2022-10-31T13:07:11.293Z,100481.66
2022-10-31T13:10:03.763Z,100478.13
2022-10-31T13:12:37.374Z,100475.63
2022-10-31T13:15:28.978Z,100474.41
2022-10-31T13:18:03.079Z,100468.56
2022-10-31T13:20:41.395Z,100467.31
2022-10-31T13:23:50.383Z,100475.16
2022-10-31T13:26:46.374Z,100472.91
2022-10-31T13:29:56.868Z,100479.13
2022-10-31T13:32:25.670Z,100477.34
2022-10-31T13:34:59.180Z,100479.28
2022-10-31T13:37:42.690Z,100477.56
2022-10-31T13:40:43.722Z,100467.00
2022-10-31T13:43:34.332Z,100461.78
2022-10-31T13:46:01.643Z,100454.94
2022-10-31T13:48:28.771Z,100454.25
2022-10-31T13:51:05.393Z,100447.19
2022-10-31T13:53:43.047Z,100443.63
2022-10-31T13:56:25.490Z,100446.25
2022-10-31T13:59:10.737Z,100448.84
2022-10-31T14:01:47.459Z,100435.47
2022-10-31T14:04:25.857Z,100437.06
2022-10-31T14:07:17.298Z,100439.69
2022-10-31T14:10:06.276Z,100440.50
2022-10-31T14:12:42.207Z,100435.16
2022-10-31T14:15:24.794Z,100426.31
2022-10-31T14:18:01.864Z,100428.41
2022-10-31T14:20:45.025Z,100425.28
2022-10-31T14:23:38.547Z,100422.41
2022-10-31T14:26:26.639Z,100419.66
2022-10-31T14:29:20.821Z,100416.16
2022-10-31T14:32:27.611Z,100423.78
2022-10-31T14:34:58.827Z,100413.97
2022-10-31T14:38:11.944Z,100408.59
2022-10-31T14:40:58.703Z,100409.78
2022-10-31T14:44:15.248Z,100413.41
2022-10-31T14:46:57.044Z,100406.66
2022-10-31T14:49:35.155Z,100398.84
2022-10-31T14:52:06.943Z,100400.75
2022-10-31T14:54:42.150Z,100409.47
2022-10-31T14:57:20.407Z,100405.63
2022-10-31T15:00:00.787Z,100409.13
2022-10-31T15:02:57.108Z,100394.50
2022-10-31T15:05:27.133Z,100391.47
2022-10-31T15:07:58.625Z,100386.75
2022-10-31T15:10:33.133Z,100390.56
2022-10-31T15:13:24.865Z,100388.28
2022-10-31T15:15:56.444Z,100395.47
2022-10-31T15:18:28.609Z,100392.66
2022-10-31T15:20:57.778Z,100388.66
2022-10-31T15:23:30.034Z,100394.09
2022-10-31T15:26:06.532Z,100395.69
2022-10-31T15:28:33.794Z,100392.88
2022-10-31T15:31:03.963Z,100392.47
2022-10-31T15:33:47.886Z,100390.97
2022-10-31T15:36:27.152Z,100386.47
2022-10-31T15:38:59.803Z,100386.50
2022-10-31T15:41:54.831Z,100395.97
2022-10-31T15:44:43.272Z,100395.19
2022-10-31T15:47:27.176Z,100390.19
2022-10-31T15:50:00.081Z,100398.44
2022-10-31T15:52:34.195Z,100392.59
2022-10-31T15:55:11.706Z,100400.19
2022-10-31T15:57:54.053Z,100386.47
2022-10-31T16:00:38.363Z,100395.66
2022-10-31T16:03:31.655Z,100398.72
2022-10-31T16:06:06.641Z,100390.28
2022-10-31T16:08:37.042Z,100391.69
2022-10-31T16:11:13.607Z,100402.03
2022-10-31T16:14:29.019Z,100393.53
2022-10-31T16:16:59.538Z,100401.91
2022-10-31T16:19:48.493Z,100398.75
2022-10-31T16:22:28.475Z,100401.06
2022-10-31T16:25:30.370Z,100399.06
2022-10-31T16:28:16.151Z,100401.31
2022-10-31T16:30:50.168Z,100407.09
2022-10-31T16:33:37.125Z,100415.69
2022-10-31T16:36:35.246Z,100418.91
2022-10-31T16:39:04.094Z,100432.03
2022-10-31T16:41:32.972Z,100431.59
2022-10-31T16:44:03.374Z,100432.91
2022-10-31T16:46:30.541Z,100435.19
2022-10-31T16:48:58.660Z,100439.25
2022-10-31T16:51:25.906Z,100437.25
2022-10-31T16:53:54.299Z,100440.69
2022-10-31T16:56:34.018Z,100447.34
2022-10-31T16:59:05.449Z,100445.28
2022-10-31T17:01:33.748Z,100456.47
2022-10-31T17:04:00.981Z,100455.25
2022-10-31T17:06:28.518Z,100455.91
2022-10-31T17:08:55.782Z,100465.28
2022-10-31T17:11:26.124Z,100469.56
2022-10-31T17:13:54.923Z,100470.13
2022-10-31T17:16:22.173Z,100476.97
2022-10-31T17:18:49.443Z,100474.16
2022-10-31T17:21:26.275Z,100480.03
2022-10-31T17:23:53.818Z,100489.47
2022-10-31T17:26:21.437Z,100493.75
2022-10-31T17:28:49.231Z,100496.06
2022-10-31T17:31:31.439Z,100498.41
2022-10-31T17:34:02.725Z,100491.25
2022-10-31T17:36:33.528Z,100490.22
2022-10-31T17:39:00.959Z,100493.63
2022-10-31T17:41:28.123Z,100497.84
2022-10-31T17:43:59.581Z,100493.09
2022-10-31T17:46:28.285Z,100494.69
2022-10-31T17:48:55.634Z,100500.66
2022-10-31T17:51:23.019Z,100495.03
2022-10-31T17:53:50.301Z,100505.28
2022-10-31T17:56:17.489Z,100507.75
2022-10-31T17:58:44.715Z,100504.09
2022-10-31T18:01:16.303Z,100515.28
2022-10-31T18:03:44.495Z,100515.91
2022-10-31T18:06:14.481Z,100521.66
2022-10-31T18:08:42.361Z,100521.59
2022-10-31T18:11:21.990Z,100519.69
2022-10-31T18:13:56.790Z,100524.16
2022-10-31T18:16:25.391Z,100527.38
2022-10-31T18:18:58.520Z,100524.56
2022-10-31T18:21:25.998Z,100527.06
2022-10-31T18:24:00.654Z,100527.84
2022-10-31T18:26:29.227Z,100524.94
2022-10-31T18:28:56.524Z,100533.41
2022-10-31T18:31:24.492Z,100526.34
2022-10-31T18:33:56.425Z,100534.94
2022-10-31T18:36:24.639Z,100520.69
2022-10-31T18:38:51.915Z,100533.84
2022-10-31T18:41:19.614Z,100528.38
2022-10-31T18:43:46.824Z,100534.88
2022-10-31T18:46:17.997Z,100531.25
2022-10-31T18:48:45.764Z,100535.22
2022-10-31T18:51:14.670Z,100534.56
2022-10-31T18:53:41.981Z,100540.56
2022-10-31T18:56:11.140Z,100534.22
2022-10-31T18:58:38.288Z,100528.47
2022-10-31T19:01:13.224Z,100528.41
2022-10-31T19:03:41.357Z,100528.47
2022-10-31T19:06:10.126Z,100527.56
2022-10-31T19:08:39.629Z,100524.72
2022-10-31T19:11:13.939Z,100524.59
2022-10-31T19:13:43.782Z,100526.38
2022-10-31T19:16:16.458Z,100532.56
2022-10-31T19:18:44.844Z,100539.31
2022-10-31T19:21:17.300Z,100538.44
2022-10-31T19:23:45.536Z,100543.28
2022-10-31T19:26:13.886Z,100537.59
2022-10-31T19:28:42.013Z,100540.75
2022-10-31T19:31:10.419Z,100541.50
2022-10-31T19:33:37.864Z,100539.66
2022-10-31T19:36:15.492Z,100536.81
2022-10-31T19:38:47.328Z,100537.34
2022-10-31T19:41:26.048Z,100543.22
2022-10-31T19:43:54.437Z,100544.38
2022-10-31T19:46:40.355Z,100547.88
2022-10-31T19:49:11.932Z,100545.66
2022-10-31T19:51:39.182Z,100555.09
2022-10-31T19:54:06.903Z,100556.84
2022-10-31T19:56:34.073Z,100550.75
2022-10-31T19:59:02.652Z,100553.31
2022-10-31T20:01:30.394Z,100550.97
2022-10-31T20:03:57.734Z,100548.97
2022-10-31T20:06:28.280Z,100549.47
2022-10-31T20:08:56.491Z,100553.41
2022-10-31T20:11:26.798Z,100558.56
2022-10-31T20:13:58.956Z,100557.50
2022-10-31T20:16:28.120Z,100563.22
2022-10-31T20:18:56.401Z,100562.47
2022-10-31T20:21:28.526Z,100568.63
2022-10-31T20:24:02.534Z,100573.88
2022-10-31T20:26:32.100Z,100568.56
2022-10-31T20:29:01.896Z,100575.53
2022-10-31T20:31:36.396Z,100571.03
2022-10-31T20:34:04.318Z,100576.84
2022-10-31T20:36:31.659Z,100577.91
2022-10-31T20:39:00.170Z,100577.91
2022-10-31T20:41:27.391Z,100582.84
2022-10-31T20:43:55.041Z,100576.84
2022-10-31T20:46:26.384Z,100582.09
2022-10-31T20:48:54.669Z,100587.50
2022-10-31T20:51:28.696Z,100588.94
2022-10-31T20:53:59.890Z,100587.03
2022-10-31T20:56:28.622Z,100584.56
2022-10-31T20:58:57.411Z,100589.97
2022-10-31T21:01:29.628Z,100582.19
2022-10-31T21:03:58.663Z,100586.88
2022-10-31T21:06:26.789Z,100584.19
2022-10-31T21:08:54.602Z,100585.78
2022-10-31T21:11:25.509Z,100586.72
2022-10-31T21:13:53.617Z,100593.56
2022-10-31T21:16:25.893Z,100592.72
2022-10-31T21:18:55.430Z,100589.44
2022-10-31T21:21:36.056Z,100591.25
2022-10-31T21:24:10.416Z,100591.97
2022-10-31T21:26:42.689Z,100587.25
2022-10-31T21:29:11.976Z,100587.75
2022-10-31T21:31:40.441Z,100588.25
2022-10-31T21:34:08.098Z,100592.47
2022-10-31T21:36:36.109Z,100593.09
2022-10-31T21:39:06.633Z,100592.03
2022-10-31T21:41:34.101Z,100598.91
2022-10-31T21:44:01.975Z,100603.97
2022-10-31T21:46:33.997Z,100603.31
2022-10-31T21:49:03.957Z,100598.97
2022-10-31T21:51:35.359Z,100597.19
2022-10-31T21:54:22.247Z,100606.94
2022-10-31T21:56:49.528Z,100609.22
2022-10-31T21:59:16.877Z,100605.13
2022-10-31T22:01:44.263Z,100604.97
2022-10-31T22:04:11.547Z,100601.72
2022-10-31T22:06:38.898Z,100604.81
2022-10-31T22:09:10.152Z,100599.88
2022-10-31T22:11:37.511Z,100596.63
2022-10-31T22:14:05.089Z,100599.09
2022-10-31T22:16:36.608Z,100598.56
2022-10-31T22:19:06.129Z,100602.59
2022-10-31T22:21:47.297Z,100597.09
2022-10-31T22:24:16.493Z,100600.03
2022-10-31T22:26:44.113Z,100594.63
2022-10-31T22:29:15.753Z,100600.31
2022-10-31T22:31:53.485Z,100596.28
2022-10-31T22:34:24.692Z,100593.31
2022-10-31T22:36:54.257Z,100594.22
2022-10-31T22:39:21.500Z,100585.69
2022-10-31T22:41:48.630Z,100584.22
2022-10-31T22:44:15.761Z,100582.38
2022-10-31T22:46:42.935Z,100587.59
2022-10-31T22:49:15.158Z,100585.63
2022-10-31T22:51:43.777Z,100579.16
2022-10-31T22:54:17.816Z,100580.38
2022-10-31T22:56:46.172Z,100573.50
2022-10-31T22:59:15.946Z,100582.66
2022-10-31T23:01:47.194Z,100577.59
2022-10-31T23:04:16.482Z,100577.13
2022-10-31T23:06:44.292Z,100581.28
2022-10-31T23:09:16.433Z,100577.25
2022-10-31T23:11:44.503Z,100581.69
2022-10-31T23:14:20.514Z,100567.34
2022-10-31T23:16:56.063Z,100564.97
2022-10-31T23:19:30.456Z,100566.59
2022-10-31T23:22:03.968Z,100565.94
2022-10-31T23:24:44.641Z,100565.75
2022-10-31T23:27:17.450Z,100559.56
2022-10-31T23:29:56.399Z,100563.00
2022-10-31T23:32:35.054Z,100573.41
2022-10-31T23:35:10.374Z,100566.44
2022-10-31T23:37:39.139Z,100562.84
2022-10-31T23:40:10.600Z,100562.69
2022-10-31T23:42:38.471Z,100558.72
2022-10-31T23:45:06.396Z,100565.88
2022-10-31T23:47:33.782Z,100566.59
2022-10-31T23:50:00.899Z,100565.75
2022-10-31T23:52:28.221Z,100566.34
2022-10-31T23:54:55.389Z,100569.03
2022-10-31T23:57:22.522Z,100564.63
2022-10-31T23:59:49.647Z,100558.22
